Portada
METAR-TAF:

METAR-TAF

Aeropuertos :

Aeropuerto de Jerez

Jerez de la Frontera, España

latitud: 36-45N, longitud: 006-04W, altitud: 27 m

Observación

El informe se hizo hace 32 minutos, a las 16:00 UTC
Viento 8 kt del oeste, variando entre suroeste y noroeste
Temperatura 26°C
Humedad 51%
Presión 1018 hPa
Visibilidad 10 km o más
Escasas nubes a una altura de 4000 ft

METAR: LEJR 251600Z 28008KT 230V320 9999 FEW040 26/15 Q1018

Hora: 18:32 (16:32 UTC)

Pronóstico

El informe se hizo hace 2 horas y 32 minutos, a las 14:00 UTC
Pronóstico válido del 25 a las 15 UTC al 26 a las 15 UTC
Viento 8 kt del oeste
Visibilidad 10 km o más
Cielo nuboso a una altura de 3000 ft

TAF: LEJR 251400Z 2515/2615 27008KT 9999 BKN030 TX30/2615Z TN14/2606Z

Observaciones y pronósticos meteorológicos de más de 4000 aeropuertos (mensajes METAR y TAF).

Los puntos amarillos y rojos representan las estaciones disponibles.

Ponga el ratón en el punto deseado para ver el nombre de la estación.

Haga clic para ver las observaciones y los pronósticos meteorológicos.

Para cambiar el mapa : haga clic en los botones verdes con una cruz de color negro para hacer un zoom, en el botón verde con un guión para alejar o en las flechas verdes para mapas adyacentes.


METAR-TAF: